Time;durP1;ratioP1;P1;durP2;ratioP2;P2;SDS_P1;SDS_P2;PMS_P1;PMS_P2;Temp;Humidity;BMP_temperature;BMP_pressure;BME280_temperature;BME280_humidity;BME280_pressure;Samples;Min_cycle;Max_cycle;Signal;HPM_P1;HPM_P2
2023/07/10 00:01:46;;;;;;;0.68;0.68;;;20.00;75.00;;;;;;5070368;28;20269;-75
2023/07/10 00:04:19;;;;;;;0.80;0.80;;;20.00;74.90;;;;;;5074987;28;20650;-75
2023/07/10 00:06:46;;;;;;;0.68;0.68;;;20.00;74.80;;;;;;5072280;28;20648;-76
2023/07/10 00:09:12;;;;;;;1.02;1.00;;;20.00;74.80;;;;;;5074149;28;20166;-76
2023/07/10 00:11:38;;;;;;;0.80;0.80;;;19.90;74.90;;;;;;5072572;28;20175;-76
2023/07/10 00:14:06;;;;;;;0.98;0.98;;;19.90;75.30;;;;;;5068924;28;20573;-75
2023/07/10 00:16:32;;;;;;;1.20;0.93;;;19.90;75.60;;;;;;5068381;28;20278;-76
2023/07/10 00:18:58;;;;;;;0.80;0.80;;;;;;;;;;5069341;28;20262;-75
2023/07/10 00:21:24;;;;;;;0.73;0.73;;;;;;;;;;5068924;28;20328;-75
2023/07/10 00:23:50;;;;;;;0.75;0.75;;;;;;;;;;5081102;28;20214;-76
2023/07/10 00:26:25;;;;;;;0.85;0.85;;;19.70;76.70;;;;;;5070731;28;20312;-75
2023/07/10 00:28:53;;;;;;;0.80;0.80;;;19.70;77.00;;;;;;5074239;28;20540;-75
2023/07/10 00:31:19;;;;;;;0.93;0.93;;;;;;;;;;5077441;28;20189;-75
2023/07/10 00:33:48;;;;;;;1.05;0.88;;;19.60;77.60;;;;;;5079525;28;20265;-75
2023/07/10 00:36:33;;;;;;;0.90;0.90;;;19.60;77.60;;;;;;5068448;28;20206;-75
2023/07/10 00:39:12;;;;;;;1.00;1.00;;;19.50;77.90;;;;;;5072320;28;20197;-75
2023/07/10 00:41:39;;;;;;;1.33;1.23;;;19.50;78.10;;;;;;5072231;28;20270;-75
2023/07/10 00:44:06;;;;;;;1.70;1.25;;;19.40;78.20;;;;;;5077227;28;20318;-75
2023/07/10 00:47:07;;;;;;;1.08;1.08;;;19.40;78.70;;;;;;5073933;28;20202;-75
2023/07/10 00:49:46;;;;;;;1.77;1.17;;;19.40;78.70;;;;;;5056491;28;20190;-76
2023/07/10 00:52:24;;;;;;;0.93;0.93;;;19.30;78.30;;;;;;5069383;28;20744;-75
2023/07/10 00:54:52;;;;;;;1.33;1.23;;;19.30;78.70;;;;;;5077503;28;20178;-76
2023/07/10 00:57:33;;;;;;;1.25;1.13;;;19.20;78.90;;;;;;5069208;28;20269;-76
2023/07/10 01:00:00;;;;;;;1.02;1.02;;;19.20;78.70;;;;;;5066697;28;20198;-76
2023/07/10 01:02:26;;;;;;;1.23;1.23;;;19.20;78.80;;;;;;5069465;28;20653;-76
2023/07/10 01:05:03;;;;;;;1.00;1.00;;;19.20;78.90;;;;;;5069652;28;20212;-74
2023/07/10 01:07:35;;;;;;;0.90;0.90;;;19.10;79.60;;;;;;5049844;28;20185;-75
2023/07/10 01:10:04;;;;;;;0.90;0.90;;;19.10;79.70;;;;;;5076739;28;20206;-75
2023/07/10 01:12:31;;;;;;;1.13;1.13;;;19.00;80.10;;;;;;5068425;28;22224;-76
2023/07/10 01:14:57;;;;;;;1.08;1.08;;;;;;;;;;5059129;28;20193;-76
2023/07/10 01:17:24;;;;;;;0.80;0.80;;;19.00;80.40;;;;;;5069629;28;20171;-76
2023/07/10 01:19:55;;;;;;;4.55;1.10;;;18.90;80.60;;;;;;5068946;28;20190;-75
2023/07/10 01:22:21;;;;;;;2.20;1.00;;;;;;;;;;5067861;28;20258;-75
2023/07/10 01:24:52;;;;;;;1.13;1.13;;;18.90;80.70;;;;;;5068611;28;20179;-75
2023/07/10 01:27:20;;;;;;;1.27;1.17;;;18.80;80.60;;;;;;5053536;28;20703;-76
2023/07/10 01:29:56;;;;;;;1.15;1.15;;;18.80;80.60;;;;;;5073096;28;20194;-76
2023/07/10 01:32:24;;;;;;;0.88;0.88;;;18.80;81.10;;;;;;5070778;28;20183;-76
2023/07/10 01:34:56;;;;;;;2.97;1.40;;;18.70;81.00;;;;;;5072398;28;20559;-76
2023/07/10 01:37:22;;;;;;;1.13;1.13;;;18.70;81.50;;;;;;5072901;28;20175;-76
2023/07/10 01:39:50;;;;;;;0.95;0.95;;;18.60;81.80;;;;;;5068821;28;20189;-75
2023/07/10 01:42:17;;;;;;;1.30;1.30;;;18.60;81.10;;;;;;5071539;28;20201;-75
2023/07/10 01:44:45;;;;;;;1.05;1.05;;;18.60;81.70;;;;;;5076873;28;20198;-75
2023/07/10 01:47:12;;;;;;;1.10;1.10;;;18.60;81.70;;;;;;5069993;28;20623;-75
2023/07/10 01:49:55;;;;;;;0.90;0.90;;;18.50;81.50;;;;;;5077386;28;20175;-75
2023/07/10 01:52:22;;;;;;;1.40;0.90;;;18.50;81.90;;;;;;5068616;28;20201;-75
2023/07/10 01:54:48;;;;;;;1.70;1.00;;;18.40;82.00;;;;;;5068928;28;20185;-75
2023/07/10 01:57:15;;;;;;;1.45;1.35;;;18.40;81.90;;;;;;5067554;28;20187;-75
2023/07/10 01:59:41;;;;;;;1.00;1.00;;;18.40;82.50;;;;;;5061325;28;20259;-75
2023/07/10 02:02:08;;;;;;;1.27;1.27;;;18.30;82.10;;;;;;5068083;28;20190;-75
2023/07/10 02:04:34;;;;;;;1.10;1.10;;;18.30;82.30;;;;;;5068763;28;20234;-75
2023/07/10 02:07:00;;;;;;;1.00;1.00;;;18.30;82.10;;;;;;5065552;28;20172;-75
2023/07/10 02:09:28;;;;;;;1.10;1.10;;;18.20;82.50;;;;;;5067959;28;20269;-75
2023/07/10 02:11:54;;;;;;;2.05;1.45;;;18.20;82.50;;;;;;5066648;28;20259;-76
2023/07/10 02:14:20;;;;;;;1.10;1.10;;;18.20;82.40;;;;;;5072430;28;20190;-76
2023/07/10 02:16:47;;;;;;;1.20;1.20;;;18.10;82.80;;;;;;5061546;28;20194;-77
2023/07/10 02:19:13;;;;;;;2.15;1.00;;;18.10;82.60;;;;;;5071035;28;20500;-76
2023/07/10 02:21:39;;;;;;;0.88;0.88;;;18.00;82.70;;;;;;5071159;28;20587;-76
2023/07/10 02:24:06;;;;;;;1.58;1.33;;;18.00;82.80;;;;;;5066058;28;20699;-76
2023/07/10 02:26:31;;;;;;;1.30;1.20;;;18.00;83.30;;;;;;5068036;28;20179;-78
2023/07/10 02:28:58;;;;;;;0.80;0.80;;;17.90;83.00;;;;;;5072093;28;20183;-76
2023/07/10 02:31:25;;;;;;;1.00;0.95;;;17.90;83.50;;;;;;5075432;28;20179;-76
2023/07/10 02:33:50;;;;;;;1.20;1.20;;;17.90;83.10;;;;;;5072842;28;20179;-76
2023/07/10 02:36:16;;;;;;;1.55;1.23;;;17.90;83.60;;;;;;5072952;28;20202;-75
2023/07/10 02:38:42;;;;;;;2.90;1.05;;;17.90;83.40;;;;;;5066634;28;20175;-73
2023/07/10 02:41:08;;;;;;;0.95;0.95;;;17.80;83.30;;;;;;5073229;28;20179;-74
2023/07/10 02:43:34;;;;;;;1.48;1.48;;;17.80;83.30;;;;;;5073135;28;20272;-74
2023/07/10 02:46:00;;;;;;;0.98;0.98;;;;;;;;;;5071120;28;20171;-75
2023/07/10 02:48:26;;;;;;;1.35;1.23;;;17.70;83.70;;;;;;5072523;28;20235;-74
2023/07/10 02:50:52;;;;;;;0.98;0.98;;;;;;;;;;5071364;28;20671;-74
2023/07/10 02:53:17;;;;;;;0.93;0.93;;;17.70;83.70;;;;;;5076472;28;20189;-74
2023/07/10 02:55:43;;;;;;;1.65;1.23;;;17.60;84.70;;;;;;5071910;28;20179;-76
2023/07/10 02:59:13;;;;;;;3.40;1.05;;;17.50;85.40;;;;;;5050810;28;20582;-74
2023/07/10 03:01:39;;;;;;;1.20;1.20;;;17.30;86.30;;;;;;5043738;28;20241;-74
2023/07/10 03:04:05;;;;;;;1.35;1.35;;;17.40;85.30;;;;;;5049381;28;20610;-74
2023/07/10 03:06:31;;;;;;;1.30;1.30;;;17.30;85.10;;;;;;5049253;28;20576;-74
2023/07/10 03:08:58;;;;;;;12.60;9.40;;;17.30;84.80;;;;;;5041138;28;20184;-74
2023/07/10 03:11:24;;;;;;;102.53;47.83;;;17.30;84.70;;;;;;5042492;28;20613;-74
2023/07/10 03:13:50;;;;;;;4.88;2.47;;;;;;;;;;5042994;28;20175;-75
2023/07/10 03:16:16;;;;;;;2.38;2.20;;;17.30;85.10;;;;;;5046766;28;20679;-74
2023/07/10 03:18:42;;;;;;;4.32;3.63;;;17.40;84.80;;;;;;5046345;28;20207;-75
2023/07/10 03:21:09;;;;;;;16.52;11.95;;;17.30;85.40;;;;;;5048949;28;20176;-74
2023/07/10 03:23:35;;;;;;;1.35;1.25;;;17.20;86.30;;;;;;5047517;28;20172;-74
2023/07/10 03:26:01;;;;;;;9.00;5.97;;;;;;;;;;5047350;28;20615;-75
2023/07/10 03:28:27;;;;;;;1.75;1.15;;;17.00;87.00;;;;;;5047421;28;20184;-74
2023/07/10 03:30:53;;;;;;;1.65;1.45;;;;;;;;;;5047358;28;20172;-74
2023/07/10 03:33:19;;;;;;;12.48;10.30;;;17.10;86.70;;;;;;5047395;28;20218;-74
2023/07/10 03:35:48;;;;;;;10.55;9.23;;;17.10;86.50;;;;;;5047224;28;20180;-74
2023/07/10 03:38:15;;;;;;;1.30;1.20;;;17.10;85.30;;;;;;5045834;28;20211;-75
2023/07/10 03:40:55;;;;;;;0.90;0.90;;;17.20;84.90;;;;;;5047173;28;20176;-75
2023/07/10 03:43:22;;;;;;;9.30;8.02;;;;;;;;;;5036321;28;20574;-75
2023/07/10 03:45:48;;;;;;;1.92;1.83;;;17.30;85.20;;;;;;5047019;28;20258;-75
2023/07/10 03:48:14;;;;;;;1.13;1.00;;;17.30;85.10;;;;;;5047112;28;20176;-74
2023/07/10 03:50:40;;;;;;;3.13;1.42;;;;;;;;;;5047004;28;20238;-74
2023/07/10 03:53:05;;;;;;;1.30;1.20;;;17.30;85.70;;;;;;5046967;28;20208;-74
2023/07/10 03:55:31;;;;;;;1.55;1.08;;;;;;;;;;5046755;28;20208;-74
2023/07/10 03:57:57;;;;;;;1.17;1.00;;;17.30;85.70;;;;;;5046740;28;20755;-75
2023/07/10 04:00:23;;;;;;;1.20;1.20;;;17.30;85.30;;;;;;5046822;28;20230;-75
2023/07/10 04:02:49;;;;;;;0.80;0.80;;;;;;;;;;5046734;28;20180;-74
2023/07/10 04:05:15;;;;;;;1.95;1.20;;;;;;;;;;5046665;28;20247;-74
2023/07/10 04:07:41;;;;;;;3.47;1.73;;;17.50;85.20;;;;;;5046489;28;20238;-74
2023/07/10 04:10:07;;;;;;;1.95;1.50;;;17.50;85.10;;;;;;5034603;28;20678;-74
2023/07/10 04:12:33;;;;;;;1.38;1.27;;;;;;;;;;5025342;28;20208;-74
2023/07/10 04:14:59;;;;;;;2.65;1.75;;;;;;;;;;5030070;28;20227;-75
2023/07/10 04:17:25;;;;;;;2.45;1.42;;;;;;;;;;5033196;28;20655;-75
2023/07/10 04:19:51;;;;;;;2.45;1.88;;;;;;;;;;5034645;28;20200;-75
2023/07/10 04:22:17;;;;;;;2.45;1.27;;;;;;;;;;5033126;28;20607;-76
2023/07/10 04:24:43;;;;;;;1.48;1.45;;;;;;;;;;5032878;28;20180;-75
2023/07/10 04:27:09;;;;;;;0.95;0.95;;;;;;;;;;5033098;28;20562;-75
2023/07/10 04:29:35;;;;;;;1.42;1.33;;;17.50;85.00;;;;;;5031647;28;20189;-76
2023/07/10 04:32:01;;;;;;;1.10;1.05;;;;;;;;;;5033037;28;20180;-74
2023/07/10 04:34:27;;;;;;;1.33;1.20;;;;;;;;;;5032922;28;20534;-74
2023/07/10 04:36:54;;;;;;;3.28;1.95;;;;;;;;;;5032801;28;20187;-76
2023/07/10 04:39:20;;;;;;;4.85;2.40;;;;;;;;;;5032884;28;20185;-74
2023/07/10 04:41:46;;;;;;;2.13;1.83;;;;;;;;;;5032687;28;20684;-74
2023/07/10 04:44:12;;;;;;;1.45;1.35;;;;;;;;;;5031355;28;20654;-74
2023/07/10 04:46:38;;;;;;;1.20;1.20;;;;;;;;;;5031565;28;20187;-74
2023/07/10 04:49:04;;;;;;;1.00;1.00;;;;;;;;;;5032457;28;20238;-75
2023/07/10 04:51:30;;;;;;;1.35;1.25;;;;;;;;;;5032743;28;20204;-75
2023/07/10 04:53:56;;;;;;;2.05;1.88;;;;;;;;;;5030951;28;20673;-75
2023/07/10 04:56:22;;;;;;;1.27;1.15;;;;;;;;;;5031301;28;20677;-74
2023/07/10 04:58:56;;;;;;;2.17;1.63;;;18.00;84.70;;;;;;5032237;28;20219;-75
2023/07/10 05:01:28;;;;;;;1.30;1.20;;;18.10;84.00;;;;;;5032427;28;20179;-75
2023/07/10 05:03:55;;;;;;;1.15;1.15;;;18.20;84.00;;;;;;5032295;28;20211;-74
2023/07/10 05:06:21;;;;;;;1.00;1.00;;;18.30;83.80;;;;;;5032499;28;20181;-74
2023/07/10 05:08:47;;;;;;;1.20;1.20;;;18.30;84.10;;;;;;5031018;28;20255;-75
2023/07/10 05:11:14;;;;;;;1.65;1.55;;;18.40;83.70;;;;;;5032284;28;20176;-75
2023/07/10 05:13:40;;;;;;;1.33;1.33;;;;;;;;;;5030785;28;20187;-75
2023/07/10 05:16:06;;;;;;;1.70;1.60;;;;;;;;;;5032159;28;20434;-74
2023/07/10 05:18:32;;;;;;;1.45;1.38;;;;;;;;;;5031820;28;20754;-74
2023/07/10 05:20:59;;;;;;;1.13;1.13;;;18.60;83.90;;;;;;5030878;28;20260;-74
2023/07/10 05:23:25;;;;;;;2.97;1.63;;;18.70;84.00;;;;;;5032179;28;20259;-74
2023/07/10 05:25:57;;;;;;;1.35;1.35;;;18.80;83.70;;;;;;5031965;28;20272;-74
2023/07/10 05:28:24;;;;;;;1.33;1.33;;;18.80;83.60;;;;;;5029401;28;20230;-74
2023/07/10 05:30:50;;;;;;;0.93;0.93;;;18.90;83.60;;;;;;5031791;28;20185;-74
2023/07/10 05:33:16;;;;;;;0.98;0.98;;;;;;;;;;5031811;28;20172;-74
2023/07/10 05:35:53;;;;;;;0.90;0.90;;;19.00;83.30;;;;;;5031833;28;20172;-74
2023/07/10 05:38:23;;;;;;;1.27;1.27;;;19.10;83.40;;;;;;5031652;28;20207;-73
2023/07/10 05:40:49;;;;;;;1.08;1.08;;;19.20;83.30;;;;;;5031519;28;20238;-74
2023/07/10 05:43:15;;;;;;;2.15;1.90;;;;;;;;;;5031275;28;20575;-74
2023/07/10 05:45:41;;;;;;;1.70;1.70;;;;;;;;;;5031395;28;20279;-74
2023/07/10 05:48:07;;;;;;;1.00;1.00;;;19.40;83.10;;;;;;5031323;28;20189;-74
2023/07/10 05:50:33;;;;;;;3.15;1.75;;;;;;;;;;5031411;28;20199;-74
2023/07/10 05:52:59;;;;;;;1.65;1.65;;;19.50;82.80;;;;;;5031364;28;20204;-74
2023/07/10 05:55:25;;;;;;;2.03;1.67;;;;;;;;;;5031121;28;20678;-75
2023/07/10 05:57:51;;;;;;;1.23;1.23;;;;;;;;;;5030929;28;20204;-75
2023/07/10 06:00:17;;;;;;;1.52;1.38;;;19.70;82.60;;;;;;5031141;28;20272;-74
2023/07/10 06:02:43;;;;;;;1.98;1.88;;;;;;;;;;5030982;28;20686;-74
2023/07/10 06:05:09;;;;;;;2.10;1.40;;;;;;;;;;5030993;28;20229;-75
2023/07/10 06:07:35;;;;;;;1.80;1.70;;;;;;;;;;5031190;28;20181;-75
2023/07/10 06:10:01;;;;;;;1.20;1.20;;;;;;;;;;5030901;28;20180;-75
2023/07/10 06:12:27;;;;;;;1.13;1.13;;;;;;;;;;5031073;28;20187;-75
2023/07/10 06:14:53;;;;;;;1.88;1.77;;;;;;;;;;5030733;28;20567;-74
2023/07/10 06:17:19;;;;;;;1.58;1.10;;;;;;;;;;5030997;28;20204;-74
2023/07/10 06:19:45;;;;;;;1.67;1.63;;;;;;;;;;5032391;28;20188;-75
2023/07/10 06:22:12;;;;;;;1.58;1.48;;;20.60;80.40;;;;;;5031010;28;20184;-74
2023/07/10 06:24:39;;;;;;;1.80;1.67;;;20.70;80.40;;;;;;5030782;28;20199;-74
2023/07/10 06:27:06;;;;;;;1.75;1.65;;;20.80;80.00;;;;;;5030830;28;20210;-75
2023/07/10 06:29:34;;;;;;;1.52;1.52;;;20.90;79.70;;;;;;5030651;28;20267;-74
2023/07/10 06:32:00;;;;;;;3.65;1.60;;;21.00;79.80;;;;;;5030573;28;20207;-75
2023/07/10 06:34:26;;;;;;;5.25;1.52;;;;;;;;;;5030610;28;20184;-75
2023/07/10 06:36:52;;;;;;;1.58;1.58;;;;;;;;;;5030584;28;20599;-74
2023/07/10 06:39:18;;;;;;;1.85;1.75;;;;;;;;;;5030580;28;20673;-75
2023/07/10 06:41:44;;;;;;;1.58;1.58;;;;;;;;;;5030659;28;20176;-75
2023/07/10 06:44:10;;;;;;;3.13;1.58;;;;;;;;;;5030403;28;20195;-74
2023/07/10 06:46:36;;;;;;;2.00;1.90;;;;;;;;;;5030694;28;20195;-74
2023/07/10 06:49:02;;;;;;;1.55;1.45;;;;;;;;;;5030253;28;20583;-74
2023/07/10 06:51:28;;;;;;;1.40;1.40;;;;;;;;;;5030650;28;20597;-74
2023/07/10 06:53:54;;;;;;;1.73;1.65;;;;;;;;;;5030456;28;20286;-75
2023/07/10 06:56:20;;;;;;;1.58;1.58;;;;;;;;;;5030468;28;20172;-75
2023/07/10 06:58:46;;;;;;;1.27;1.27;;;21.80;77.00;;;;;;5030257;28;20242;-74
2023/07/10 07:01:12;;;;;;;1.20;1.20;;;;;;;;;;5030439;28;20678;-74
2023/07/10 07:03:40;;;;;;;2.25;1.60;;;;;;;;;;5030411;28;20575;-75
2023/07/10 07:06:07;;;;;;;4.88;1.50;;;22.10;77.10;;;;;;5029002;28;20188;-75
2023/07/10 07:08:33;;;;;;;1.25;1.15;;;22.20;77.50;;;;;;5030289;28;20180;-75
2023/07/10 07:10:59;;;;;;;1.65;1.65;;;;;;;;;;5030260;28;20172;-74
2023/07/10 07:13:25;;;;;;;1.63;1.52;;;22.30;76.10;;;;;;5030122;28;20184;-75
2023/07/10 07:15:53;;;;;;;2.13;1.55;;;22.40;76.00;;;;;;5030044;28;20567;-74
2023/07/10 07:18:19;;;;;;;1.13;1.13;;;22.50;75.90;;;;;;5029976;28;20261;-75
2023/07/10 07:20:46;;;;;;;1.33;1.33;;;22.60;75.90;;;;;;5031637;28;20192;-74
2023/07/10 07:23:12;;;;;;;3.83;1.40;;;22.60;74.90;;;;;;5030131;28;20192;-74
2023/07/10 07:25:40;;;;;;;1.05;1.05;;;22.60;74.80;;;;;;5030163;28;20259;-74
2023/07/10 07:28:06;;;;;;;1.25;1.20;;;;;;;;;;5029977;28;20188;-74
2023/07/10 07:30:32;;;;;;;2.45;1.40;;;22.70;74.20;;;;;;5029861;28;20616;-75
2023/07/10 07:32:58;;;;;;;1.30;1.30;;;22.70;74.60;;;;;;5029840;28;20184;-75
2023/07/10 07:35:24;;;;;;;1.98;1.88;;;;;;;;;;5030049;28;20180;-75
2023/07/10 07:37:50;;;;;;;1.42;1.42;;;;;;;;;;5029716;28;20204;-75
2023/07/10 07:40:16;;;;;;;2.38;1.25;;;23.00;74.70;;;;;;5030121;28;20551;-75
2023/07/10 07:42:46;;;;;;;1.20;1.20;;;23.10;73.80;;;;;;5028661;28;20180;-75
2023/07/10 07:45:13;;;;;;;1.17;1.17;;;23.20;73.80;;;;;;5032371;28;20180;-75
2023/07/10 07:47:40;;;;;;;1.20;1.20;;;23.20;71.90;;;;;;5033691;28;20191;-75
2023/07/10 07:50:09;;;;;;;1.40;1.20;;;23.20;73.10;;;;;;5033610;28;20183;-75
2023/07/10 07:52:35;;;;;;;1.63;1.52;;;;;;;;;;5033585;28;20191;-74
2023/07/10 07:55:02;;;;;;;1.33;1.20;;;23.40;72.40;;;;;;5033485;28;20184;-75
2023/07/10 07:57:28;;;;;;;1.30;1.30;;;;;;;;;;5033308;28;20219;-75
2023/07/10 07:59:54;;;;;;;1.25;1.25;;;;;;;;;;5032187;28;20181;-74
2023/07/10 08:02:20;;;;;;;1.27;1.27;;;23.60;71.10;;;;;;5033347;28;20191;-75
2023/07/10 08:04:46;;;;;;;1.48;1.23;;;;;;;;;;5033484;28;20192;-74
2023/07/10 08:07:12;;;;;;;1.25;1.25;;;;;;;;;;5033379;28;20176;-75
2023/07/10 08:09:38;;;;;;;3.45;1.48;;;;;;;;;;5033467;28;20264;-75
2023/07/10 08:12:04;;;;;;;1.20;1.20;;;23.90;70.00;;;;;;5033197;28;20604;-74
2023/07/10 08:14:30;;;;;;;3.80;1.60;;;;;;;;;;5033395;28;20215;-75
2023/07/10 08:16:57;;;;;;;1.10;1.10;;;24.00;70.80;;;;;;5030286;28;20256;-74
2023/07/10 08:19:23;;;;;;;1.25;1.17;;;24.10;70.70;;;;;;5034809;28;20180;-74
2023/07/10 08:21:50;;;;;;;1.42;1.42;;;;;;;;;;5032921;28;20180;-74
2023/07/10 08:24:16;;;;;;;1.25;1.15;;;;;;;;;;5031890;28;20628;-75
2023/07/10 08:26:42;;;;;;;1.55;1.45;;;;;;;;;;5033068;28;20168;-74
2023/07/10 08:29:29;;;;;;;2.35;1.50;;;24.20;71.00;;;;;;5033097;28;20191;-75
2023/07/10 08:31:56;;;;;;;3.17;1.70;;;24.30;69.90;;;;;;5021874;28;20179;-75
2023/07/10 08:34:23;;;;;;;1.20;1.20;;;24.40;69.20;;;;;;5032832;28;20223;-75
2023/07/10 08:36:52;;;;;;;1.42;1.40;;;24.40;69.60;;;;;;5032653;28;20187;-75
2023/07/10 08:39:18;;;;;;;1.70;1.70;;;;;;;;;;5031391;28;20663;-75
2023/07/10 08:41:44;;;;;;;1.23;1.10;;;24.60;68.00;;;;;;5032698;28;20234;-74
2023/07/10 08:44:12;;;;;;;1.30;1.30;;;24.70;68.50;;;;;;5032711;28;20180;-74
2023/07/10 08:46:38;;;;;;;1.17;1.17;;;;;;;;;;5032531;28;20180;-75
2023/07/10 08:49:40;;;;;;;0.98;0.98;;;24.90;68.60;;;;;;5032487;28;20180;-75
2023/07/10 08:52:11;;;;;;;1.10;1.10;;;25.00;69.40;;;;;;5031207;28;20230;-74
2023/07/10 08:54:37;;;;;;;1.42;1.35;;;25.00;67.70;;;;;;5032440;28;20176;-75
2023/07/10 08:57:03;;;;;;;1.20;1.20;;;;;;;;;;5032106;28;20242;-75
2023/07/10 08:59:38;;;;;;;2.35;1.38;;;25.20;67.40;;;;;;5032478;28;20223;-74
2023/07/10 09:02:15;;;;;;;1.42;1.38;;;;;;;;;;5030590;28;20633;-75
2023/07/10 09:04:43;;;;;;;2.30;1.42;;;25.40;68.90;;;;;;5032442;28;20275;-75
2023/07/10 09:07:10;;;;;;;5.35;1.30;;;25.50;68.50;;;;;;5032239;28;20562;-75
2023/07/10 09:09:47;;;;;;;2.53;1.20;;;25.70;68.80;;;;;;5032299;28;20173;-75
2023/07/10 09:12:15;;;;;;;1.25;1.25;;;25.80;66.30;;;;;;5032327;28;20183;-75
2023/07/10 09:15:04;;;;;;;1.50;1.45;;;26.00;66.60;;;;;;5032152;28;20267;-75
2023/07/10 09:17:49;;;;;;;1.20;1.20;;;26.10;66.30;;;;;;5021563;28;20219;-75
2023/07/10 09:20:16;;;;;;;1.30;1.27;;;26.30;66.10;;;;;;5031628;28;20189;-75
2023/07/10 09:22:51;;;;;;;1.20;1.20;;;26.50;65.00;;;;;;5031822;28;20177;-75
2023/07/10 09:25:17;;;;;;;0.85;0.85;;;26.60;65.30;;;;;;5032037;28;20222;-75
2023/07/10 09:27:44;;;;;;;1.20;1.20;;;26.80;64.30;;;;;;5031744;28;20682;-75
2023/07/10 09:30:22;;;;;;;1.42;1.30;;;26.90;64.50;;;;;;5031953;28;20613;-74
2023/07/10 09:32:50;;;;;;;1.45;1.45;;;27.00;63.90;;;;;;5031503;28;20188;-74
2023/07/10 09:35:17;;;;;;;1.15;1.15;;;27.00;63.30;;;;;;5031974;28;20173;-75
2023/07/10 09:37:49;;;;;;;1.20;1.20;;;26.90;63.20;;;;;;5031416;28;20204;-75
2023/07/10 09:40:40;;;;;;;1.50;1.50;;;26.90;62.80;;;;;;5030563;28;20745;-75
2023/07/10 09:43:13;;;;;;;1.42;1.42;;;26.90;62.40;;;;;;5031057;28;20181;-75
2023/07/10 09:45:44;;;;;;;1.17;1.17;;;27.00;63.30;;;;;;5031572;28;20234;-75
2023/07/10 09:48:21;;;;;;;1.77;1.27;;;27.20;61.10;;;;;;5031485;28;20183;-75
2023/07/10 09:50:49;;;;;;;1.65;1.55;;;27.30;62.70;;;;;;5031585;28;20559;-75
2023/07/10 09:53:45;;;;;;;1.05;1.05;;;27.50;62.20;;;;;;5031259;28;20195;-75
2023/07/10 09:56:21;;;;;;;1.80;1.35;;;27.70;61.60;;;;;;5020042;28;20192;-75
2023/07/10 09:58:47;;;;;;;1.42;1.35;;;;;;;;;;5031203;28;20214;-74
2023/07/10 10:01:13;;;;;;;4.18;1.20;;;;;;;;;;5031290;28;20184;-74
2023/07/10 10:03:41;;;;;;;1.05;1.05;;;27.80;57.90;;;;;;5030999;28;20176;-74
2023/07/10 10:06:19;;;;;;;0.98;0.98;;;27.90;56.10;;;;;;5031291;28;20267;-75
2023/07/10 10:08:47;;;;;;;1.20;1.20;;;28.10;58.40;;;;;;5030782;28;20265;-74
2023/07/10 10:11:13;;;;;;;1.20;1.20;;;28.20;58.80;;;;;;5031182;28;20489;-74
2023/07/10 10:13:58;;;;;;;1.20;1.10;;;28.40;59.50;;;;;;5030998;28;20184;-73
2023/07/10 10:16:41;;;;;;;1.25;1.25;;;28.60;57.20;;;;;;5030871;28;20254;-74
2023/07/10 10:19:21;;;;;;;6.70;1.20;;;28.80;55.60;;;;;;5021076;28;20291;-74
2023/07/10 10:21:47;;;;;;;1.33;1.33;;;28.80;55.40;;;;;;5029462;28;20741;-74
2023/07/10 10:24:13;;;;;;;1.35;1.35;;;28.90;56.60;;;;;;5031066;28;20263;-74
2023/07/10 10:26:53;;;;;;;1.58;1.58;;;29.10;56.10;;;;;;5030687;28;20572;-73
2023/07/10 10:29:46;;;;;;;1.23;1.23;;;29.30;55.20;;;;;;5030867;28;20230;-74
2023/07/10 10:32:24;;;;;;;1.48;1.48;;;29.80;54.10;;;;;;5021895;28;20183;-75
2023/07/10 10:35:01;;;;;;;1.60;1.60;;;30.20;54.90;;;;;;5030641;28;20271;-74
2023/07/10 10:37:58;;;;;;;3.92;1.30;;;30.40;55.00;;;;;;5030587;28;20200;-75
2023/07/10 10:40:24;;;;;;;1.42;1.42;;;;;;;;;;5012934;28;20185;-74
2023/07/10 10:42:55;;;;;;;1.52;1.52;;;31.20;53.00;;;;;;5028611;28;20680;-74
2023/07/10 10:45:28;;;;;;;1.33;1.33;;;31.60;52.80;;;;;;5030784;28;20259;-74
2023/07/10 10:48:15;;;;;;;1.42;1.27;;;31.70;52.10;;;;;;5029030;28;20670;-74
2023/07/10 10:51:21;;;;;;;1.63;1.58;;;32.20;51.40;;;;;;5030399;28;20210;-74
2023/07/10 10:54:02;;;;;;;2.28;1.80;;;32.70;50.20;;;;;;5030270;28;20172;-75
2023/07/10 10:56:45;;;;;;;1.42;1.33;;;32.90;50.80;;;;;;5020825;28;20263;-75
2023/07/10 10:59:52;;;;;;;1.45;1.45;;;33.40;49.30;;;;;;5030379;28;20229;-75
2023/07/10 11:02:36;;;;;;;1.40;1.40;;;33.60;50.80;;;;;;5029891;28;20199;-75
2023/07/10 11:05:08;;;;;;;1.23;1.23;;;33.80;49.20;;;;;;5030181;28;20251;-75
2023/07/10 11:07:35;;;;;;;1.17;1.17;;;33.80;48.50;;;;;;5030314;28;20222;-74
2023/07/10 11:10:10;;;;;;;1.48;1.48;;;34.00;47.50;;;;;;5028363;28;20187;-74
2023/07/10 11:12:37;;;;;;;1.50;1.50;;;;;;;;;;5019972;28;20193;-75
2023/07/10 11:15:18;;;;;;;1.80;1.60;;;34.00;47.60;;;;;;5030194;28;20194;-75
2023/07/10 11:17:49;;;;;;;2.25;1.40;;;34.10;48.50;;;;;;5030188;28;20663;-75
2023/07/10 11:20:16;;;;;;;1.40;1.40;;;34.50;47.50;;;;;;5034270;28;20558;-75
2023/07/10 11:22:56;;;;;;;1.50;1.50;;;34.80;48.20;;;;;;5034277;28;20171;-75
2023/07/10 11:25:38;;;;;;;2.20;1.83;;;35.30;47.10;;;;;;5033974;28;20182;-74
2023/07/10 11:28:17;;;;;;;1.35;1.30;;;36.10;45.70;;;;;;5033955;28;20176;-75
2023/07/10 11:30:43;;;;;;;1.33;1.33;;;;;;;;;;5034162;28;20593;-74
2023/07/10 11:33:21;;;;;;;1.38;1.38;;;36.10;45.70;;;;;;5033922;28;20180;-74
2023/07/10 11:36:29;;;;;;;1.33;1.33;;;36.20;44.90;;;;;;5033887;28;20207;-75
2023/07/10 11:39:16;;;;;;;1.33;1.33;;;36.30;45.90;;;;;;5024016;28;20231;-75
2023/07/10 11:41:45;;;;;;;1.30;1.30;;;36.40;44.80;;;;;;5022984;28;20700;-75
2023/07/10 11:44:11;;;;;;;1.60;1.60;;;;;;;;;;5032463;28;20318;-75
2023/07/10 11:47:01;;;;;;;1.65;1.45;;;36.50;46.70;;;;;;5033604;28;20176;-74
2023/07/10 11:49:44;;;;;;;1.35;1.35;;;36.80;44.10;;;;;;5032085;28;20599;-75
2023/07/10 11:52:16;;;;;;;1.17;1.17;;;36.70;43.90;;;;;;5033805;28;20176;-75
2023/07/10 11:54:42;;;;;;;1.70;1.65;;;;;;;;;;5025910;28;20238;-75
2023/07/10 11:57:25;;;;;;;1.40;1.40;;;36.80;44.40;;;;;;5033341;28;20202;-75
2023/07/10 12:00:20;;;;;;;1.40;1.40;;;36.90;45.50;;;;;;5033395;28;20187;-75
2023/07/10 12:02:51;;;;;;;1.50;1.48;;;36.80;44.10;;;;;;5058525;28;20184;-75
2023/07/10 12:05:19;;;;;;;1.30;1.30;;;36.50;44.60;;;;;;5028627;28;20279;-75
2023/07/10 12:07:51;;;;;;;1.42;1.42;;;36.60;43.60;;;;;;5033139;28;20188;-75
2023/07/10 12:10:16;;;;;;;2.75;1.92;;;36.60;44.00;;;;;;5033416;28;20171;-75
2023/07/10 12:12:42;;;;;;;1.02;1.02;;;36.40;44.30;;;;;;5033237;28;20176;-75
2023/07/10 12:15:10;;;;;;;1.10;1.10;;;36.30;45.00;;;;;;5033303;28;20267;-75
2023/07/10 12:17:38;;;;;;;2.13;1.25;;;36.40;46.40;;;;;;5033243;28;20206;-75
2023/07/10 12:20:31;;;;;;;1.42;1.42;;;36.80;44.00;;;;;;5034597;28;20191;-75
2023/07/10 12:23:05;;;;;;;1.60;1.60;;;37.20;43.40;;;;;;5032871;28;20184;-75
2023/07/10 12:25:30;;;;;;;1.38;1.38;;;37.40;45.00;;;;;;5033377;28;20180;-75
2023/07/10 12:28:00;;;;;;;1.25;1.25;;;37.50;45.00;;;;;;5032870;28;20175;-75
2023/07/10 12:30:27;;;;;;;1.50;1.50;;;37.70;44.10;;;;;;5032635;28;20258;-75
2023/07/10 12:32:55;;;;;;;4.97;1.25;;;38.10;43.20;;;;;;5032797;28;20258;-75
2023/07/10 12:35:30;;;;;;;1.92;1.73;;;38.70;44.90;;;;;;5033068;28;20208;-74
2023/07/10 12:38:01;;;;;;;1.65;1.65;;;39.10;43.40;;;;;;5032626;28;20199;-74
2023/07/10 12:40:29;;;;;;;2.88;1.50;;;39.40;42.50;;;;;;5032963;28;20176;-74
2023/07/10 12:42:56;;;;;;;2.03;1.92;;;39.50;42.50;;;;;;5032648;28;20233;-75
2023/07/10 12:45:32;;;;;;;1.80;1.80;;;39.60;41.90;;;;;;5032801;28;20186;-75
2023/07/10 12:48:14;;;;;;;1.92;1.92;;;39.50;42.80;;;;;;5032268;28;20190;-75
2023/07/10 12:50:42;;;;;;;1.75;1.75;;;39.10;42.10;;;;;;5032716;28;20254;-75
2023/07/10 12:53:17;;;;;;;1.45;1.45;;;38.50;42.40;;;;;;5032462;28;20194;-75
2023/07/10 12:55:43;;;;;;;1.60;1.60;;;37.90;44.10;;;;;;5030074;28;20201;-74
2023/07/10 12:58:14;;;;;;;1.60;1.60;;;37.30;42.90;;;;;;5032370;28;20608;-74
2023/07/10 13:00:46;;;;;;;1.85;1.77;;;37.20;44.60;;;;;;5032549;28;20195;-75
2023/07/10 13:03:27;;;;;;;3.45;1.70;;;36.90;44.20;;;;;;5032571;28;20229;-74
2023/07/10 13:06:16;;;;;;;2.30;1.67;;;36.60;44.40;;;;;;5020629;28;20399;-74
2023/07/10 13:08:46;;;;;;;1.80;1.80;;;36.80;48.10;;;;;;5032046;28;20184;-74
2023/07/10 13:11:20;;;;;;;2.03;1.92;;;37.00;44.00;;;;;;5032491;28;20548;-75
2023/07/10 13:13:46;;;;;;;1.70;1.70;;;36.70;45.70;;;;;;5031965;28;20613;-74
2023/07/10 13:16:20;;;;;;;2.00;1.85;;;36.40;45.10;;;;;;5032400;28;20289;-74
2023/07/10 13:18:45;;;;;;;1.95;1.88;;;36.40;44.40;;;;;;5030922;28;20709;-75
2023/07/10 13:21:20;;;;;;;1.70;1.70;;;36.30;45.70;;;;;;5032321;28;20184;-75
2023/07/10 13:23:47;;;;;;;1.90;1.90;;;36.40;47.20;;;;;;5020960;28;20575;-74
2023/07/10 13:26:24;;;;;;;2.03;1.92;;;36.30;45.80;;;;;;5032011;28;20558;-74
2023/07/10 13:28:52;;;;;;;1.98;1.88;;;36.00;47.30;;;;;;5031757;28;20172;-75
2023/07/10 13:31:22;;;;;;;1.92;1.92;;;35.60;46.80;;;;;;5031919;28;20176;-73